Loveland, Colorado
Current Conditions -  °F | °C
As of 3:55 AM on Sunday 23 Nov 2014 (Local Time) from KFNL Reporting Station
Clear Clear  
Wind Chill: 26°   Ceiling: Unl
Heat Index: 37°   Visibility: 10mi
Dew Point: 21°   Wind: 26mph
Humidity: 52%   Direction: 330°NNW
Pressure: 29.69"   Gusts: 32mph
Location:  40.39°N, 105.07°W
Report Text: KFNL 231055Z AUTO 33023G28KT 10SM CLR 03/M06 A2969 RMK AO1
Loading
Personal Weather Stations






























Interactive Weather Map New forecast layout! Learn more

10-Day Weather Forecast

Advertisements
Track Severe Weather on mobile